Etusivu
METAR-TAF:

METAR-TAF

Lentoasemat :

Fairford, Englanti

Leveyspiiri: 51-41N, Pituuspiiri: 001-47W, korkeus merenpinnasta: 87 m

Tämänhetkinen sää

Tämä raportti tehtiin 35 minuuttia sitten, kello 03.13 UTC
Tuuli 6 kn lännestä/lounaasta
Lämpötila 7°C
Kosteus 93%
Ilmanpaine 1024 hPa
Hajonneita pilviä 500 ft:n korkeudessa
Hajonneita pilviä 1200 ft:n korkeudessa
Hajonneita pilviä 2300 ft:n korkeudessa
Pilvistä 2900 ft:n korkeudessa

METAR: EGVA 190313Z AUTO 25006KT M M BKN005 BKN012 BKN023 OVC029 07/06 A3025 RMK AO2 SLP249 RVRNO $

Aika: 03:48 (03:48 UTC)


TAF: puuttuu

Säähavainnot ja -ennusteet yli 4000 lentoasemalta (METAR- ja TAF-raportit).

Käytössä olevat sääasemat on merkitty karttaan keltaisilla ja punaisilla pisteillä.

Aseta hiiri pisteen päälle nähdäksesi sääaseman nimen.

Klikkaa sitten nähdäksesi säähavainnot ja -ennusteet.

Kartan vaihtaminen: klikkaa mustalla rastilla varustettuja vihreitä pisteitä, niin voit zoomata sisään; viivalla varustettua vihreää pistettä, niin voit zoomata ulos tai vihreitä nuolia, niin pääset viereisille kartoille.


METAR-TAF: